Forside
METAR-TAF:

METAR-TAF

Lufthavne :

Kuwait City, Kuwait

Breddekreds: 29-13N, længdekreds: 047-59E, højde: 55 m

Aktuelle vejr

Denne rapport blev lavet for 59 minutter siden, kl. 17:00 UTC
Vind 3 kt fra østsydøst
Temperatur 31°C
Fugtighed 55%
Tryk 1014 hPa
Sigt 10 km eller mere
ingen skyer under 1500m og ingen cumulonimbus

METAR: OKBK 151700Z 11003KT CAVOK 31/21 Q1014 NOSIG

Tid: 20:59 (17:59 UTC)

Vejrudsigter

Denne rapport blev lavet for 1 time og 14 minutter siden, kl. 16:45 UTC
Foreløbig gælder fra 15 på 18 UTC til 16 på 24 UTC
Vind 12 kt fra syd
Sigt: 7000 m
Midlertidig
fra 16 på 00 UTC til 16 på 04 UTC
Vind 3 kt fra varierende retninger
Sigt: 3000 m

TAF: OKBK 151645Z 1518/1624 17012KT 7000 NSC TEMPO 1600/1604 VRB03KT 3000 HZ/BR

Vejrobservationer og prognoser fra mere end 4000 lufthavne (METAR og TAF).

De gule og røde prikker repræsenterer de meteorologiske stationer.

Flyt musen over at se navnet på stationen.

Så klik over at se vejr observationer og prognoser.

At skifte det kort: Klik på de grønne knapper med et sort kors for at zoome ind; på den grønne knap med en bindestreg for at zoome ud; eller på de grønne pile for tilstødende kort.


METAR-TAF: